createdAt,value
2023-03-28T05:24:53.785Z,96587.33
2023-03-28T05:27:23.602Z,96601.45
2023-03-28T05:29:52.669Z,96612.70
2023-03-28T05:32:21.275Z,96608.61
2023-03-28T05:34:50.786Z,96612.61
2023-03-28T05:37:20.935Z,96617.79
2023-03-28T05:40:15.722Z,96626.67
2023-03-28T05:42:45.531Z,96626.16
2023-03-28T05:45:18.531Z,96621.08
2023-03-28T05:47:57.662Z,96630.47
2023-03-28T05:50:27.394Z,96628.10
2023-03-28T05:53:06.857Z,96632.14
2023-03-28T05:55:36.019Z,96629.09
2023-03-28T05:58:05.397Z,96636.69
2023-03-28T06:00:47.966Z,96648.46
2023-03-28T06:03:19.027Z,96656.27
2023-03-28T06:05:48.005Z,96660.43
2023-03-28T06:08:41.815Z,96664.27
2023-03-28T06:11:12.940Z,96673.84
2023-03-28T06:18:48.671Z,96677.42
2023-03-28T09:55:31.518Z,96914.70
2023-03-28T10:07:14.501Z,96931.88
2023-03-28T10:18:03.761Z,96951.15
2023-03-28T10:20:38.702Z,96972.88
2023-03-28T10:23:06.265Z,96963.91
2023-03-28T10:25:42.131Z,96971.83
2023-03-28T10:28:19.251Z,96977.08
2023-03-28T10:30:53.244Z,96992.42
2023-03-28T10:33:42.768Z,96997.77
2023-03-28T10:36:37.091Z,96993.67
2023-03-28T10:39:50.696Z,96997.14
2023-03-28T10:42:43.516Z,96990.23
2023-03-28T10:45:24.312Z,97005.21
2023-03-28T10:47:53.027Z,97005.41
2023-03-28T10:50:36.525Z,97007.56
2023-03-28T10:53:59.018Z,97008.85
2023-03-28T10:56:40.822Z,97006.86
2023-03-28T10:59:40.988Z,97023.06
2023-03-28T11:02:48.200Z,97018.96
2023-03-28T11:05:55.179Z,97017.23
2023-03-28T11:09:17.042Z,97019.42
2023-03-28T11:12:56.653Z,97023.65
2023-03-28T11:16:15.066Z,97031.51
2023-03-28T11:19:36.249Z,97036.84
2023-03-28T11:22:49.739Z,97037.13
2023-03-28T11:25:44.353Z,97031.30
2023-03-28T11:29:07.723Z,97038.71
2023-03-28T11:31:40.697Z,97038.92
2023-03-28T11:34:42.195Z,97045.38
2023-03-28T11:37:37.097Z,97048.46
2023-03-28T11:40:33.068Z,97049.03
2023-03-28T11:43:06.113Z,97053.89
2023-03-28T11:45:51.949Z,97066.05
2023-03-28T11:48:32.035Z,97077.58
2023-03-28T11:51:10.365Z,97079.36
2023-03-28T11:54:00.647Z,97078.35
2023-03-28T11:56:57.158Z,97082.95
2023-03-28T12:00:11.313Z,97101.14
2023-03-28T12:02:51.755Z,97103.65
2023-03-28T12:05:39.932Z,97106.16
2023-03-28T12:08:34.445Z,97108.34
2023-03-28T12:11:05.935Z,97116.56
2023-03-28T12:14:27.188Z,97120.02
2023-03-28T12:22:04.476Z,97121.45
2023-03-28T12:25:30.643Z,97126.35
2023-03-28T12:54:30.307Z,97163.61
2023-03-28T12:57:52.206Z,97166.88
2023-03-28T13:02:22.996Z,97174.08
2023-03-28T13:46:21.856Z,97242.44
2023-03-28T13:49:38.908Z,97253.20
2023-03-28T14:33:20.519Z,97361.14
2023-03-28T14:37:02.045Z,97363.03
2023-03-28T15:02:35.401Z,97450.18
2023-03-28T15:06:18.140Z,97455.38
2023-03-28T15:27:22.619Z,97486.29
2023-03-28T15:31:04.442Z,97484.71
2023-03-28T16:18:40.693Z,97524.69
2023-03-28T16:22:27.415Z,97523.80
2023-03-28T17:41:58.959Z,97630.00
2023-03-28T17:45:17.689Z,97632.48
2023-03-28T17:56:46.885Z,97636.73
2023-03-28T17:59:41.958Z,97641.66
2023-03-28T19:24:46.638Z,97701.74
2023-03-28T19:27:14.899Z,97701.00
2023-03-28T19:29:44.234Z,97701.82
2023-03-28T19:32:14.037Z,97706.44
2023-03-28T19:34:42.256Z,97702.55
2023-03-28T19:37:13.232Z,97708.20
2023-03-28T19:39:41.709Z,97713.98
2023-03-28T19:42:09.951Z,97715.23
2023-03-28T19:44:39.507Z,97714.33
2023-03-28T19:47:08.124Z,97712.55
2023-03-28T19:49:39.516Z,97706.25
2023-03-28T19:52:10.205Z,97715.77
2023-03-28T19:54:41.996Z,97718.34
2023-03-28T19:57:10.757Z,97721.30
2023-03-28T19:59:39.064Z,97716.61
2023-03-28T20:02:07.289Z,97713.08
2023-03-28T20:04:37.636Z,97710.34
2023-03-28T20:07:06.234Z,97710.70
2023-03-28T20:09:42.355Z,97715.11
2023-03-28T20:12:11.411Z,97716.15
2023-03-28T20:14:39.659Z,97719.95
2023-03-28T20:17:07.892Z,97718.58
2023-03-28T20:19:37.454Z,97720.61
2023-03-28T20:22:06.636Z,97719.29
2023-03-28T20:24:36.382Z,97725.54
2023-03-28T20:27:04.957Z,97721.16
2023-03-28T20:29:34.492Z,97720.69
2023-03-28T20:32:04.967Z,97729.24
2023-03-28T20:34:33.244Z,97725.97
2023-03-28T20:37:08.852Z,97735.08
2023-03-28T20:39:37.671Z,97731.94
2023-03-28T20:42:06.683Z,97736.05
2023-03-28T20:44:38.457Z,97737.11
2023-03-28T20:47:10.939Z,97739.65
2023-03-28T20:49:46.601Z,97737.91
2023-03-28T20:52:15.755Z,97737.23
2023-03-28T20:54:47.278Z,97738.45
2023-03-28T20:57:40.774Z,97742.89
2023-03-28T21:00:14.016Z,97748.64
2023-03-28T21:02:46.398Z,97757.09
2023-03-28T21:05:16.097Z,97764.85
2023-03-28T21:07:45.234Z,97766.35
2023-03-28T21:10:14.848Z,97765.64
2023-03-28T21:12:47.842Z,97765.14
2023-03-28T21:15:17.778Z,97768.77
2023-03-28T21:17:49.609Z,97769.02
2023-03-28T21:20:18.911Z,97768.44
2023-03-28T21:22:48.110Z,97771.55
2023-03-28T21:25:17.208Z,97770.45
2023-03-28T21:27:49.848Z,97778.81
2023-03-28T21:30:19.550Z,97779.29
2023-03-28T21:33:02.149Z,97785.20
2023-03-28T21:35:32.969Z,97783.73
2023-03-28T21:38:02.262Z,97782.24
2023-03-28T21:40:31.277Z,97779.02
2023-03-28T21:43:00.132Z,97783.06
2023-03-28T21:45:28.439Z,97780.98
2023-03-28T21:47:58.947Z,97782.87
2023-03-28T21:50:31.595Z,97778.39
2023-03-28T21:52:59.692Z,97784.65
2023-03-28T21:55:29.693Z,97782.64
2023-03-28T21:57:58.611Z,97781.38
2023-03-28T22:00:28.606Z,97777.89
2023-03-28T22:02:57.497Z,97781.65
2023-03-28T22:05:29.657Z,97778.45
2023-03-28T22:07:59.267Z,97787.42
2023-03-28T22:10:27.734Z,97791.20
2023-03-28T22:12:59.013Z,97790.70
2023-03-28T22:15:27.923Z,97797.98
2023-03-28T22:17:58.495Z,97797.36
2023-03-28T22:20:35.795Z,97806.09
2023-03-28T22:23:07.004Z,97807.06
2023-03-28T22:25:38.608Z,97811.92
2023-03-28T22:28:09.563Z,97814.66
2023-03-28T22:31:19.215Z,97816.30
2023-03-28T22:34:17.981Z,97823.06
2023-03-28T22:36:49.600Z,97827.25
2023-03-28T22:39:21.885Z,97826.77
2023-03-28T22:41:51.323Z,97829.02
2023-03-28T22:44:21.864Z,97826.77
2023-03-28T22:46:51.498Z,97831.63
2023-03-28T22:49:22.484Z,97835.73
2023-03-28T22:51:50.982Z,97833.38
2023-03-28T22:54:22.913Z,97837.33
2023-03-28T22:56:51.257Z,97843.34
2023-03-28T22:59:20.003Z,97850.45
2023-03-28T23:01:49.658Z,97850.29
2023-03-28T23:04:20.170Z,97851.89
2023-03-28T23:06:51.576Z,97850.20
2023-03-28T23:09:27.703Z,97851.38
2023-03-28T23:12:05.122Z,97853.52
2023-03-28T23:14:33.324Z,97861.55
2023-03-28T23:17:02.622Z,97859.38
2023-03-28T23:19:32.218Z,97867.59
2023-03-28T23:22:02.060Z,97868.05
2023-03-28T23:24:37.015Z,97871.98
2023-03-28T23:27:07.259Z,97868.90
2023-03-28T23:29:35.971Z,97868.76
2023-03-28T23:32:04.768Z,97873.48
2023-03-28T23:34:37.381Z,97875.96
2023-03-28T23:37:05.721Z,97878.29
2023-03-28T23:39:33.962Z,97883.28
2023-03-28T23:42:02.454Z,97887.48
2023-03-28T23:44:31.462Z,97892.52
2023-03-28T23:47:00.318Z,97893.92
2023-03-28T23:49:29.987Z,97891.67
2023-03-28T23:51:58.075Z,97897.23
2023-03-28T23:54:26.642Z,97894.84
2023-03-28T23:56:54.788Z,97895.23
2023-03-28T23:59:23.615Z,97898.55
